Terminal Aerodrome Forecast
Issued by NWS Brownsville, TX

Home | Current Version | Previous Version | Text Only | Print | Product List | Glossary On
Versions: 1 2 3 4 5 6 7 8 9 10 11 12 13 14 15 16 17
145
FTUS44 KBRO 170520
TAFMFE
TAF
KMFE 170520Z 1706/1806 15003KT 4SM BR OVC008
     FM170900 32002KT 2SM BR OVC003
      TEMPO 1709/1712 1/2SM FG
     FM171500 35004KT P6SM OVC005
     FM172000 08005KT P6SM OVC010
     FM180200 VRB03KT 4SM BR OVC004=

USA.gov is the U.S. government's official web portal to all federal, state and local government web resources and services.